KAYS/AYS METAR and TAF weather

Enter ICAO airport designator
Station Type Date Time Source
KAYS METAR 2018/12/12 23:35 UTC NOAA

KAYS 122335Z AUTO 00000KT 10SM CLR 09/05 A3024 RMK AO2 T00900053


Station Type Date Time Source
KAYS Decoded METAR 2018/12/12 23:35 UTC NOAA

Waycross / Ware County, Ga, GA, United States (KAYS) 31-15N 082-24W 46M
Dec 12, 2018 - 06:35 PM EST / 2018.12.12 2335 UTC
Wind: Calm:0
Visibility: 10 mile(s):0
Sky conditions: clear
Temperature: 48.2 F (9.0 C)
Dew Point: 41.5 F (5.3 C)
Relative Humidity: 77%
Pressure (altimeter): 30.24 in. Hg (1024 hPa)
ob: KAYS 122335Z AUTO 00000KT 10SM CLR 09/05 A3024 RMK AO2 T00900053
cycle: 23

Station Type Date Time Source
KAYS TAF UTC NOAA

Error!


Example: see airport list